createdAt,value
2016-10-10T00:00:24.917Z,6.54
2016-10-10T00:01:06.504Z,6.61
2016-10-10T00:01:48.040Z,6.61
2016-10-10T00:04:03.395Z,6.58
2016-10-10T00:05:52.753Z,6.56
2016-10-10T00:06:34.519Z,6.58
2016-10-10T00:07:16.249Z,6.59
2016-10-10T00:07:57.808Z,6.58
2016-10-10T00:08:39.457Z,6.58
2016-10-10T00:09:21.175Z,6.55
2016-10-10T00:10:02.884Z,6.56
2016-10-10T00:10:44.559Z,6.55
2016-10-10T00:11:26.183Z,6.58
2016-10-10T00:12:07.977Z,6.59
2016-10-10T00:12:49.801Z,6.56
2016-10-10T00:13:31.456Z,6.56
2016-10-10T00:14:13.157Z,6.56
2016-10-10T00:16:07.865Z,6.55
2016-10-10T00:16:49.581Z,6.56
2016-10-10T00:17:31.291Z,6.59
2016-10-10T00:18:13.015Z,6.61
2016-10-10T00:18:54.737Z,6.59
2016-10-10T00:19:36.395Z,6.59
2016-10-10T00:20:17.959Z,6.61
2016-10-10T00:21:57.062Z,6.59
2016-10-10T00:22:38.753Z,6.59
2016-10-10T00:23:20.481Z,6.59
2016-10-10T00:24:02.186Z,6.59
2016-10-10T00:24:43.862Z,6.66
2016-10-10T00:25:25.576Z,6.61
2016-10-10T00:26:07.304Z,6.61
2016-10-10T00:26:48.988Z,6.56
2016-10-10T00:27:30.668Z,6.59
2016-10-10T00:28:12.437Z,6.59
2016-10-10T00:28:54.120Z,6.56
2016-10-10T00:29:35.847Z,6.58
2016-10-10T00:30:17.494Z,6.56
2016-10-10T00:30:59.135Z,6.61
2016-10-10T00:31:40.896Z,6.55
2016-10-10T00:32:22.579Z,6.54
2016-10-10T00:33:04.315Z,6.56
2016-10-10T00:33:46.015Z,6.61
2016-10-10T00:35:46.122Z,6.56
2016-10-10T00:36:27.745Z,6.54
2016-10-10T00:37:09.524Z,6.56
2016-10-10T00:37:51.116Z,6.58
2016-10-10T00:38:32.795Z,6.56
2016-10-10T00:39:14.412Z,6.59
2016-10-10T00:39:56.098Z,6.61
2016-10-10T00:40:37.629Z,6.59
2016-10-10T00:41:19.320Z,6.58
2016-10-10T00:43:08.695Z,6.56
2016-10-10T00:43:50.441Z,6.59
2016-10-10T00:44:32.163Z,6.62
2016-10-10T00:45:13.840Z,6.58
2016-10-10T00:45:55.534Z,6.58
2016-10-10T00:47:34.492Z,6.58
2016-10-10T00:48:16.228Z,6.62
2016-10-10T00:50:11.021Z,6.61
2016-10-10T00:50:52.593Z,6.59
2016-10-10T00:51:34.302Z,6.59
2016-10-10T00:53:34.237Z,6.59
2016-10-10T00:54:15.909Z,6.59
2016-10-10T00:54:57.660Z,6.61
2016-10-10T00:55:39.417Z,6.61
2016-10-10T00:57:34.207Z,6.59
2016-10-10T00:58:15.853Z,6.59
2016-10-10T00:58:57.542Z,6.59
2016-10-10T00:59:39.220Z,6.58
2016-10-10T01:00:20.907Z,6.56
2016-10-10T01:01:08.162Z,6.58
2016-10-10T01:01:48.693Z,6.58
2016-10-10T01:02:29.232Z,6.55
2016-10-10T01:03:09.766Z,6.56
2016-10-10T01:03:50.296Z,6.55
2016-10-10T01:04:30.824Z,6.56
2016-10-10T01:05:11.350Z,6.56
2016-10-10T01:05:51.876Z,6.61
2016-10-10T01:06:32.416Z,6.62
2016-10-10T01:07:12.975Z,6.49
2016-10-10T01:07:53.501Z,6.61
2016-10-10T01:08:34.028Z,6.58
2016-10-10T01:09:14.548Z,6.48
2016-10-10T01:09:55.086Z,6.52
2016-10-10T01:10:35.622Z,6.61
2016-10-10T01:11:16.157Z,6.49
2016-10-10T01:11:56.674Z,6.61
2016-10-10T01:12:37.241Z,6.49
2016-10-10T01:13:17.743Z,6.52
2016-10-10T01:13:58.284Z,6.59
2016-10-10T01:14:38.823Z,6.55
2016-10-10T01:15:19.377Z,6.54
2016-10-10T01:15:59.914Z,6.49
2016-10-10T01:16:40.474Z,6.49
2016-10-10T01:17:21.010Z,6.56
2016-10-10T01:18:01.530Z,6.51
2016-10-10T01:18:42.072Z,6.56
2016-10-10T01:19:22.606Z,6.51
2016-10-10T01:20:03.121Z,6.48
2016-10-10T01:20:43.678Z,6.52
2016-10-10T01:21:24.203Z,6.51
2016-10-10T01:22:04.724Z,6.51
2016-10-10T01:22:45.337Z,6.51
2016-10-10T01:23:25.879Z,6.49
2016-10-10T01:24:06.410Z,6.56
2016-10-10T01:24:46.949Z,6.55
2016-10-10T01:25:27.470Z,6.48
2016-10-10T01:26:08.022Z,6.59
2016-10-10T01:26:48.553Z,6.52
2016-10-10T01:27:29.092Z,6.51
2016-10-10T01:28:09.618Z,6.52
2016-10-10T01:28:50.157Z,6.52
2016-10-10T01:29:30.691Z,6.56
2016-10-10T01:30:11.234Z,6.51
2016-10-10T01:30:51.799Z,6.51
2016-10-10T01:31:32.272Z,6.52
2016-10-10T01:32:12.782Z,6.58
2016-10-10T01:32:53.309Z,6.61
2016-10-10T01:33:33.839Z,6.49
2016-10-10T01:34:14.363Z,6.59
2016-10-10T01:34:54.911Z,6.58
2016-10-10T01:35:35.447Z,6.55
2016-10-10T01:36:15.979Z,6.54
2016-10-10T01:36:56.523Z,6.54
2016-10-10T01:37:37.057Z,6.55
2016-10-10T01:38:17.602Z,6.55
2016-10-10T01:38:58.138Z,6.55
2016-10-10T01:39:38.676Z,6.66
2016-10-10T01:40:19.210Z,6.56
2016-10-10T01:40:59.752Z,6.56
2016-10-10T01:41:40.281Z,6.54
2016-10-10T01:42:20.825Z,6.56
2016-10-10T01:43:01.347Z,6.58
2016-10-10T01:43:41.905Z,6.61
2016-10-10T01:44:22.447Z,6.59
2016-10-10T01:45:03.029Z,6.59
2016-10-10T01:45:43.543Z,6.62
2016-10-10T01:46:24.099Z,6.58
2016-10-10T01:47:04.640Z,6.61
2016-10-10T01:47:45.162Z,6.58
2016-10-10T01:48:25.691Z,6.58
2016-10-10T01:49:06.218Z,6.58
2016-10-10T01:49:46.745Z,6.56
2016-10-10T01:50:27.332Z,6.59
2016-10-10T01:51:07.870Z,6.55
2016-10-10T01:51:48.397Z,6.58
2016-10-10T01:52:28.920Z,6.59
2016-10-10T01:53:09.440Z,6.64
2016-10-10T01:53:49.962Z,6.59
2016-10-10T01:54:30.509Z,6.59
2016-10-10T01:55:11.051Z,6.56
2016-10-10T01:55:51.647Z,6.59
2016-10-10T01:56:32.218Z,6.58
2016-10-10T01:57:12.735Z,6.58
2016-10-10T01:57:53.277Z,6.61
2016-10-10T01:58:33.793Z,6.58
2016-10-10T01:59:14.333Z,6.61
2016-10-10T01:59:54.852Z,6.58
2016-10-10T02:00:35.376Z,6.59
2016-10-10T02:01:15.915Z,6.52
2016-10-10T02:01:56.436Z,6.61
2016-10-10T02:02:36.974Z,6.58
2016-10-10T02:03:17.525Z,6.59
2016-10-10T02:03:58.075Z,6.58
2016-10-10T02:04:38.596Z,6.59
2016-10-10T02:05:19.117Z,6.62
2016-10-10T02:05:59.656Z,6.59
2016-10-10T02:06:40.223Z,6.58
2016-10-10T02:07:20.735Z,6.61
2016-10-10T02:08:01.254Z,6.58
2016-10-10T02:08:41.787Z,6.56
2016-10-10T02:09:22.342Z,6.56
2016-10-10T02:10:02.865Z,6.61
2016-10-10T02:10:43.396Z,6.62
2016-10-10T02:11:23.966Z,6.56
2016-10-10T02:12:04.508Z,6.62
2016-10-10T02:12:45.069Z,6.59
2016-10-10T02:13:25.620Z,6.55
2016-10-10T02:14:06.145Z,6.56
2016-10-10T02:14:46.690Z,6.61
2016-10-10T02:15:27.213Z,6.59
2016-10-10T02:16:07.745Z,6.66
2016-10-10T02:16:48.273Z,6.61
2016-10-10T02:17:28.807Z,6.61
2016-10-10T02:18:09.376Z,6.61
2016-10-10T02:18:49.897Z,6.61
2016-10-10T02:19:30.424Z,6.59
2016-10-10T02:20:10.942Z,6.59
2016-10-10T02:20:51.477Z,6.59
2016-10-10T02:21:32.002Z,6.59
2016-10-10T02:22:12.524Z,6.59
2016-10-10T02:22:53.058Z,6.61
2016-10-10T02:23:33.594Z,6.64
2016-10-10T02:24:14.194Z,6.61
2016-10-10T02:24:54.704Z,6.64
2016-10-10T02:25:35.256Z,6.61
2016-10-10T02:26:15.778Z,6.59
2016-10-10T02:26:56.304Z,6.59
2016-10-10T02:27:36.838Z,6.61
2016-10-10T02:28:17.360Z,6.66
2016-10-10T02:28:57.879Z,6.58
2016-10-10T02:29:38.404Z,6.64
2016-10-10T02:30:18.916Z,6.64
2016-10-10T02:30:59.442Z,6.61
2016-10-10T02:31:39.978Z,6.62
2016-10-10T02:32:20.505Z,6.61
2016-10-10T02:33:01.048Z,6.66
2016-10-10T02:33:41.572Z,6.64
2016-10-10T02:34:22.148Z,6.66
2016-10-10T02:35:02.654Z,6.71
2016-10-10T02:35:43.193Z,6.61
2016-10-10T02:36:23.759Z,6.7
2016-10-10T02:37:04.333Z,6.62
2016-10-10T02:37:44.821Z,6.69
2016-10-10T02:38:25.361Z,6.67
2016-10-10T02:39:05.863Z,6.66
2016-10-10T02:39:46.425Z,6.61
2016-10-10T02:40:26.941Z,6.66
2016-10-10T02:41:07.476Z,6.61
2016-10-10T02:41:48.014Z,6.71
2016-10-10T02:42:28.599Z,6.67
2016-10-10T02:43:09.162Z,6.67
2016-10-10T02:43:49.670Z,6.59
2016-10-10T02:44:30.181Z,6.69
2016-10-10T02:45:10.757Z,6.62
2016-10-10T02:45:51.229Z,6.64
2016-10-10T02:46:31.782Z,6.58
2016-10-10T02:47:12.308Z,6.7
2016-10-10T02:47:52.816Z,6.56
2016-10-10T02:48:33.347Z,6.62
2016-10-10T02:49:13.879Z,6.69
2016-10-10T02:49:54.428Z,6.71
2016-10-10T02:50:34.972Z,6.71
2016-10-10T02:51:15.498Z,6.64
2016-10-10T02:51:56.036Z,6.64
2016-10-10T02:52:36.573Z,6.61
2016-10-10T02:53:17.156Z,6.69
2016-10-10T02:53:57.683Z,6.61
2016-10-10T02:54:38.209Z,6.59
2016-10-10T02:55:18.760Z,6.59
2016-10-10T02:55:59.308Z,6.66
2016-10-10T02:56:39.858Z,6.69
2016-10-10T02:57:20.385Z,6.66
2016-10-10T02:58:00.900Z,6.66
2016-10-10T02:58:41.462Z,6.62
2016-10-10T02:59:22.015Z,6.66
2016-10-10T03:00:02.534Z,6.59
2016-10-10T03:00:43.080Z,6.67
2016-10-10T03:01:23.588Z,6.74
2016-10-10T03:02:04.130Z,6.69
2016-10-10T03:02:44.680Z,6.62
2016-10-10T03:03:25.196Z,6.67
2016-10-10T03:04:05.723Z,6.62
2016-10-10T03:04:46.258Z,6.61
2016-10-10T03:05:26.799Z,6.71
2016-10-10T03:06:07.321Z,6.69
2016-10-10T03:06:47.844Z,6.62
2016-10-10T03:07:28.374Z,6.69
2016-10-10T03:08:08.916Z,6.71
2016-10-10T03:08:49.443Z,6.7
2016-10-10T03:09:29.962Z,6.74
2016-10-10T03:10:10.485Z,6.73
2016-10-10T03:10:51.016Z,6.66
2016-10-10T03:11:31.562Z,6.74
2016-10-10T03:12:12.108Z,6.77
2016-10-10T03:12:52.623Z,6.73
2016-10-10T03:13:33.169Z,6.77
2016-10-10T03:14:13.714Z,6.74
2016-10-10T03:14:54.231Z,6.77
2016-10-10T03:15:34.803Z,6.7
2016-10-10T03:16:15.331Z,6.71
2016-10-10T03:16:55.863Z,6.76
2016-10-10T03:17:37.369Z,6.74
2016-10-10T03:18:17.929Z,6.71
2016-10-10T03:18:58.482Z,6.77
2016-10-10T03:19:39.022Z,6.73
2016-10-10T03:20:19.559Z,6.76
2016-10-10T03:21:00.095Z,6.77
2016-10-10T03:21:40.622Z,6.7
2016-10-10T03:22:21.171Z,6.73
2016-10-10T03:23:01.701Z,6.8
2016-10-10T03:23:42.232Z,6.76
2016-10-10T03:24:22.765Z,6.7
2016-10-10T03:25:03.297Z,6.79
2016-10-10T03:25:43.828Z,6.76
2016-10-10T03:26:24.356Z,6.8
2016-10-10T03:27:04.882Z,6.84
2016-10-10T03:27:45.399Z,6.79
2016-10-10T03:28:25.943Z,6.73
2016-10-10T03:29:06.481Z,6.71
2016-10-10T03:29:47.019Z,6.76
2016-10-10T03:30:27.519Z,6.76
2016-10-10T03:31:08.044Z,6.73
2016-10-10T03:31:48.589Z,6.69
2016-10-10T03:32:29.104Z,6.76
2016-10-10T03:33:09.639Z,6.8
2016-10-10T03:33:50.165Z,6.8
2016-10-10T03:34:30.692Z,6.73
2016-10-10T03:35:11.230Z,6.81
2016-10-10T03:35:51.757Z,6.8
2016-10-10T03:36:32.271Z,6.84
2016-10-10T03:37:12.815Z,6.77
2016-10-10T03:37:53.347Z,6.81
2016-10-10T03:38:33.896Z,6.81
2016-10-10T03:39:14.433Z,6.84
2016-10-10T03:39:54.970Z,6.85
2016-10-10T03:40:35.500Z,6.84
2016-10-10T03:41:16.023Z,6.87
2016-10-10T03:41:56.544Z,6.89
2016-10-10T03:42:37.081Z,6.81
2016-10-10T03:43:17.617Z,6.84
2016-10-10T03:43:58.134Z,6.8
2016-10-10T03:44:38.673Z,6.81
2016-10-10T03:45:19.197Z,6.8
2016-10-10T03:45:59.721Z,6.87
2016-10-10T03:46:40.240Z,6.8
2016-10-10T03:47:20.773Z,6.79
2016-10-10T03:48:01.304Z,6.79
2016-10-10T03:48:41.841Z,6.77
2016-10-10T03:49:22.369Z,6.76
2016-10-10T03:50:02.880Z,6.79
2016-10-10T03:50:43.404Z,6.8
2016-10-10T03:51:23.929Z,6.8
2016-10-10T03:52:04.434Z,6.81
2016-10-10T03:52:44.959Z,6.8
2016-10-10T03:53:25.492Z,6.76
2016-10-10T03:54:06.035Z,6.79
2016-10-10T03:54:46.565Z,6.77
2016-10-10T03:55:27.078Z,6.69
2016-10-10T03:56:07.608Z,6.77
2016-10-10T03:56:48.162Z,6.8
2016-10-10T03:57:28.669Z,6.79
2016-10-10T03:58:09.211Z,6.79
2016-10-10T03:58:49.781Z,6.76
2016-10-10T03:59:30.284Z,6.73
2016-10-10T04:00:10.812Z,6.73
2016-10-10T04:00:51.345Z,6.79
2016-10-10T04:01:31.877Z,6.8
2016-10-10T04:02:12.444Z,6.81
2016-10-10T04:02:52.995Z,6.76
2016-10-10T04:03:33.530Z,6.8
2016-10-10T04:04:14.064Z,6.71
2016-10-10T04:04:54.584Z,6.71
2016-10-10T04:05:35.120Z,6.77
2016-10-10T04:06:15.728Z,6.8
2016-10-10T04:06:56.370Z,6.8
2016-10-10T04:07:36.828Z,6.84
2016-10-10T04:08:17.341Z,6.8
2016-10-10T04:08:57.889Z,6.74
2016-10-10T04:09:38.420Z,6.81
2016-10-10T04:10:18.960Z,6.76
2016-10-10T04:10:59.483Z,6.85
2016-10-10T04:11:40.010Z,6.87
2016-10-10T04:12:20.539Z,6.87
2016-10-10T04:13:01.076Z,6.85
2016-10-10T04:13:41.602Z,6.89
2016-10-10T04:14:22.138Z,6.87
2016-10-10T04:15:02.658Z,6.89
2016-10-10T04:15:43.191Z,6.81
2016-10-10T04:16:23.728Z,6.89
2016-10-10T04:17:04.259Z,6.91
2016-10-10T04:17:44.790Z,6.81
2016-10-10T04:18:25.317Z,6.8
2016-10-10T04:19:05.864Z,6.74
2016-10-10T04:19:46.396Z,6.91
2016-10-10T04:20:26.929Z,6.76
2016-10-10T04:21:07.464Z,6.81
2016-10-10T04:21:47.983Z,6.74
2016-10-10T04:22:28.502Z,6.76
2016-10-10T04:23:09.038Z,6.8
2016-10-10T04:23:49.560Z,6.74
2016-10-10T04:24:30.087Z,6.79
2016-10-10T04:25:10.624Z,6.73
2016-10-10T04:25:51.159Z,6.74
2016-10-10T04:26:31.687Z,6.71
2016-10-10T04:27:12.228Z,6.7
2016-10-10T04:27:52.745Z,6.74
2016-10-10T04:28:33.276Z,6.77
2016-10-10T04:29:13.803Z,6.74
2016-10-10T04:29:54.349Z,6.74
2016-10-10T04:30:34.864Z,6.73
2016-10-10T04:31:15.405Z,6.7
2016-10-10T04:31:55.931Z,6.67
2016-10-10T04:32:36.455Z,6.69
2016-10-10T04:33:16.988Z,6.69
2016-10-10T04:33:57.540Z,6.59
2016-10-10T04:34:38.083Z,6.62
2016-10-10T04:35:18.618Z,6.62
2016-10-10T04:35:59.143Z,6.64
2016-10-10T04:36:39.671Z,6.58
2016-10-10T04:37:20.195Z,6.61
2016-10-10T04:38:00.735Z,6.61
2016-10-10T04:38:41.268Z,6.61
2016-10-10T04:39:21.819Z,6.64
2016-10-10T04:40:02.336Z,6.58
2016-10-10T04:40:42.857Z,6.56
2016-10-10T04:41:23.393Z,6.58
2016-10-10T04:42:03.916Z,6.54
2016-10-10T04:42:44.419Z,6.61
2016-10-10T04:43:24.960Z,6.61
2016-10-10T04:44:05.488Z,6.59
2016-10-10T04:44:46.036Z,6.61
2016-10-10T04:45:26.549Z,6.56
2016-10-10T04:46:07.068Z,6.56
2016-10-10T04:46:47.570Z,6.58
2016-10-10T04:47:28.117Z,6.61
2016-10-10T04:48:08.651Z,6.58
2016-10-10T04:48:49.179Z,6.58
2016-10-10T04:49:29.708Z,6.61
2016-10-10T04:50:10.208Z,6.59
2016-10-10T04:50:50.736Z,6.58
2016-10-10T04:51:31.250Z,6.61
2016-10-10T04:52:11.788Z,6.59
2016-10-10T04:52:52.317Z,6.61
2016-10-10T04:53:32.861Z,6.61
2016-10-10T04:54:13.368Z,6.64
2016-10-10T04:54:53.901Z,6.59
2016-10-10T04:55:34.449Z,6.64
2016-10-10T04:56:15.015Z,6.62
2016-10-10T04:56:55.546Z,6.61
2016-10-10T04:57:36.079Z,6.58
2016-10-10T04:58:16.623Z,6.66
2016-10-10T04:58:57.155Z,6.61
2016-10-10T04:59:37.686Z,6.56
2016-10-10T05:00:18.221Z,6.62
2016-10-10T05:00:58.733Z,6.64
2016-10-10T05:01:39.267Z,6.62
2016-10-10T05:02:19.770Z,6.59
2016-10-10T05:03:00.308Z,6.66
2016-10-10T05:03:40.844Z,6.59
2016-10-10T05:04:21.357Z,6.67
2016-10-10T05:05:01.897Z,6.62
2016-10-10T05:05:42.421Z,6.61
2016-10-10T05:06:22.956Z,6.64
2016-10-10T05:07:03.507Z,6.62
2016-10-10T05:07:44.026Z,6.62
2016-10-10T05:08:24.546Z,6.62
2016-10-10T05:09:05.076Z,6.59
2016-10-10T05:09:45.601Z,6.58
2016-10-10T05:10:26.120Z,6.61
2016-10-10T05:11:06.703Z,6.62
2016-10-10T05:11:47.195Z,6.64
2016-10-10T05:12:27.735Z,6.59
2016-10-10T05:13:08.272Z,6.59
2016-10-10T05:13:48.801Z,6.59
2016-10-10T05:14:29.323Z,6.61
2016-10-10T05:15:09.849Z,6.61
2016-10-10T05:15:50.388Z,6.58
2016-10-10T05:16:30.910Z,6.56
2016-10-10T05:17:11.525Z,6.58
2016-10-10T05:17:52.060Z,6.55
2016-10-10T05:18:32.565Z,6.59
2016-10-10T05:19:13.089Z,6.59
2016-10-10T05:19:53.631Z,6.46
2016-10-10T05:20:34.162Z,6.52
2016-10-10T05:21:14.681Z,6.51
2016-10-10T05:21:55.227Z,6.48
2016-10-10T05:22:35.748Z,6.48
2016-10-10T05:23:16.270Z,6.43
2016-10-10T05:23:56.809Z,6.41
2016-10-10T05:24:37.363Z,6.44
2016-10-10T05:25:17.899Z,6.37
2016-10-10T05:25:58.432Z,6.41
2016-10-10T05:26:38.966Z,6.4
2016-10-10T05:27:19.499Z,6.41
2016-10-10T05:28:00.012Z,6.43
2016-10-10T05:28:40.547Z,6.34
2016-10-10T05:29:21.087Z,6.25
2016-10-10T05:30:01.633Z,6.34
2016-10-10T05:30:42.161Z,6.3
2016-10-10T05:31:22.717Z,6.34
2016-10-10T05:32:03.242Z,6.27
2016-10-10T05:32:43.762Z,6.21
2016-10-10T05:33:24.288Z,6.22
2016-10-10T05:34:04.812Z,6.22
2016-10-10T05:34:45.353Z,6.3
2016-10-10T05:35:25.888Z,6.28
2016-10-10T05:36:06.418Z,6.25
2016-10-10T05:36:46.942Z,6.22
2016-10-10T05:37:27.491Z,6.19
2016-10-10T05:38:08.010Z,6.25
2016-10-10T05:38:48.546Z,6.27
2016-10-10T05:39:29.059Z,6.18
2016-10-10T05:40:09.575Z,6.22
2016-10-10T05:40:50.097Z,6.19
2016-10-10T05:41:30.624Z,6.17
2016-10-10T05:42:11.160Z,6.17
2016-10-10T05:42:51.691Z,6.11
2016-10-10T05:43:32.226Z,6.09
2016-10-10T05:44:12.950Z,6.09
2016-10-10T05:44:53.560Z,6.11
2016-10-10T05:45:34.285Z,6.03
2016-10-10T05:46:14.790Z,6
2016-10-10T05:46:55.330Z,6.09
2016-10-10T05:47:35.855Z,5.99
2016-10-10T05:48:16.383Z,6.09
2016-10-10T05:48:56.908Z,6.04
2016-10-10T05:49:37.464Z,6.09
2016-10-10T05:50:18.078Z,6.01
2016-10-10T05:50:58.598Z,6.01
2016-10-10T05:51:39.111Z,6
2016-10-10T05:52:19.645Z,5.99
2016-10-10T05:53:00.164Z,5.97
2016-10-10T05:53:40.690Z,5.96
2016-10-10T05:54:21.235Z,5.99
2016-10-10T05:55:01.749Z,5.86
2016-10-10T05:55:42.264Z,5.99
2016-10-10T05:56:22.802Z,5.97
2016-10-10T05:57:03.341Z,5.93
2016-10-10T05:57:43.870Z,5.99
2016-10-10T05:58:24.384Z,5.96
2016-10-10T05:59:04.921Z,5.99
2016-10-10T05:59:45.449Z,5.97
2016-10-10T06:00:25.982Z,5.94
2016-10-10T06:01:06.493Z,5.85
2016-10-10T06:01:47.032Z,5.83
2016-10-10T06:02:27.561Z,5.81
2016-10-10T06:03:08.144Z,5.85
2016-10-10T06:03:48.735Z,5.79
2016-10-10T06:04:29.264Z,5.82
2016-10-10T06:05:09.791Z,5.79
2016-10-10T06:05:50.317Z,5.76
2016-10-10T06:06:30.841Z,5.89
2016-10-10T06:07:11.381Z,5.81
2016-10-10T06:07:51.913Z,5.79
2016-10-10T06:08:32.432Z,5.81
2016-10-10T06:09:12.955Z,5.81
2016-10-10T06:09:53.501Z,5.76
2016-10-10T06:10:34.021Z,5.76
2016-10-10T06:11:14.552Z,5.78
2016-10-10T06:11:55.086Z,5.76
2016-10-10T06:12:35.618Z,5.81
2016-10-10T06:13:16.154Z,5.79
2016-10-10T06:13:56.687Z,5.74
2016-10-10T06:14:37.195Z,5.76
2016-10-10T06:15:17.737Z,5.78
2016-10-10T06:15:58.255Z,5.74
2016-10-10T06:16:38.784Z,5.75
2016-10-10T06:17:19.307Z,5.74
2016-10-10T06:17:59.846Z,5.71
2016-10-10T06:18:40.370Z,5.71
2016-10-10T06:19:20.904Z,5.67
2016-10-10T06:20:01.441Z,5.79
2016-10-10T06:20:42.012Z,5.64
2016-10-10T06:21:22.712Z,5.68
2016-10-10T06:22:03.201Z,5.64
2016-10-10T06:22:43.745Z,5.65
2016-10-10T06:23:24.254Z,5.64
2016-10-10T06:24:04.812Z,5.63
2016-10-10T06:24:45.328Z,5.64
2016-10-10T06:25:25.862Z,5.61
2016-10-10T06:26:06.395Z,5.72
2016-10-10T06:26:46.915Z,5.58
2016-10-10T06:27:27.450Z,5.63
2016-10-10T06:28:07.972Z,5.64
2016-10-10T06:28:48.522Z,5.71
2016-10-10T06:29:29.067Z,5.64
2016-10-10T06:30:09.604Z,5.65
2016-10-10T06:30:50.145Z,5.65
2016-10-10T06:31:30.682Z,5.67
2016-10-10T06:32:11.217Z,5.61
2016-10-10T06:32:51.740Z,5.63
2016-10-10T06:33:32.498Z,5.64
2016-10-10T06:34:13.235Z,5.65
2016-10-10T06:34:53.970Z,5.65
2016-10-10T06:35:34.620Z,5.68
2016-10-10T06:36:15.128Z,5.68
2016-10-10T06:36:55.652Z,5.76
2016-10-10T06:37:36.197Z,5.75
2016-10-10T06:38:16.738Z,5.79
2016-10-10T06:38:57.256Z,5.78
2016-10-10T06:39:37.761Z,5.82
2016-10-10T06:40:18.306Z,5.83
2016-10-10T06:40:58.834Z,5.86
2016-10-10T06:41:39.358Z,5.83
2016-10-10T06:42:19.876Z,5.85
2016-10-10T06:43:00.407Z,5.86
2016-10-10T06:43:40.938Z,5.86
2016-10-10T06:44:21.475Z,5.81
2016-10-10T06:45:01.987Z,5.96
2016-10-10T06:45:42.514Z,5.97
2016-10-10T06:46:23.050Z,5.99
2016-10-10T06:47:03.620Z,5.99
2016-10-10T06:47:44.130Z,6.08
2016-10-10T06:48:24.683Z,6.06
2016-10-10T06:49:05.211Z,5.99
2016-10-10T06:49:45.718Z,5.97
2016-10-10T06:50:26.245Z,5.99
2016-10-10T06:51:06.773Z,6.11
2016-10-10T06:51:47.293Z,6.12
2016-10-10T06:52:27.804Z,6.17
2016-10-10T06:53:08.371Z,6.18
2016-10-10T06:53:48.863Z,6.25
2016-10-10T06:54:29.394Z,6.25
2016-10-10T06:55:09.914Z,6.25
2016-10-10T06:55:50.450Z,6.28
2016-10-10T06:56:30.999Z,6.3
2016-10-10T06:57:11.526Z,6.36
2016-10-10T06:57:52.047Z,6.36
2016-10-10T06:58:32.592Z,6.4
2016-10-10T06:59:13.133Z,6.4
2016-10-10T06:59:53.648Z,6.46
2016-10-10T07:00:34.181Z,6.51
2016-10-10T07:01:14.717Z,6.54
2016-10-10T07:01:55.242Z,6.56
2016-10-10T07:02:35.770Z,6.55
2016-10-10T07:03:16.283Z,6.58
2016-10-10T07:03:56.811Z,6.69
2016-10-10T07:04:37.340Z,6.77
2016-10-10T07:05:17.883Z,6.76
2016-10-10T07:05:58.419Z,6.74
2016-10-10T07:06:38.983Z,6.77
2016-10-10T07:07:19.508Z,6.81
2016-10-10T07:08:00.059Z,6.76
2016-10-10T07:08:40.589Z,6.88
2016-10-10T07:09:21.123Z,6.88
2016-10-10T07:10:01.639Z,6.92
2016-10-10T07:10:42.181Z,6.95
2016-10-10T07:11:22.700Z,6.99
2016-10-10T07:12:03.203Z,6.98
2016-10-10T07:12:43.746Z,7.06
2016-10-10T07:13:24.252Z,7.03
2016-10-10T07:14:04.745Z,7.15
2016-10-10T07:14:45.254Z,7.2
2016-10-10T07:15:25.760Z,7.12
2016-10-10T07:16:06.282Z,7.21
2016-10-10T07:16:46.825Z,7.23
2016-10-10T07:17:27.329Z,7.17
2016-10-10T07:18:07.851Z,7.31
2016-10-10T07:18:48.381Z,7.3
2016-10-10T07:19:28.853Z,7.46
2016-10-10T07:20:09.408Z,7.48
2016-10-10T07:20:49.913Z,7.49
2016-10-10T07:21:30.494Z,7.57
2016-10-10T07:22:10.998Z,7.63
2016-10-10T07:22:51.487Z,7.67
2016-10-10T07:23:31.994Z,7.71
2016-10-10T07:24:12.504Z,7.71
2016-10-10T07:24:53.017Z,7.79
2016-10-10T07:25:33.551Z,7.82
2016-10-10T07:26:14.040Z,7.87
2016-10-10T07:26:54.574Z,7.8
2016-10-10T07:27:35.076Z,7.86
2016-10-10T07:28:15.585Z,7.89
2016-10-10T07:28:56.081Z,7.95
2016-10-10T07:29:36.603Z,7.98
2016-10-10T07:30:17.077Z,7.98
2016-10-10T07:30:57.584Z,7.98
2016-10-10T07:31:38.100Z,7.9
2016-10-10T07:32:18.642Z,8.04
2016-10-10T07:32:59.154Z,8.08
2016-10-10T07:33:39.667Z,8.04
2016-10-10T07:34:20.188Z,7.95
2016-10-10T07:35:00.750Z,8.04
2016-10-10T07:35:41.255Z,8.01
2016-10-10T07:36:21.736Z,8.07
2016-10-10T07:37:02.246Z,8.08
2016-10-10T07:37:42.752Z,8.02
2016-10-10T07:38:23.271Z,8.1
2016-10-10T07:39:03.789Z,8.12
2016-10-10T07:39:44.326Z,8.11
2016-10-10T07:40:24.864Z,8.12
2016-10-10T07:41:05.391Z,8.23
2016-10-10T07:41:45.942Z,8.26
2016-10-10T07:42:26.455Z,8.2
2016-10-10T07:43:06.980Z,8.25
2016-10-10T07:43:47.481Z,8.23
2016-10-10T07:44:27.995Z,8.28
2016-10-10T07:45:08.524Z,8.23
2016-10-10T07:45:49.063Z,8.28
2016-10-10T07:46:29.594Z,8.34
2016-10-10T07:47:10.131Z,8.36
2016-10-10T07:47:50.672Z,8.33
2016-10-10T07:48:31.240Z,8.4
2016-10-10T07:49:11.770Z,8.4
2016-10-10T07:49:52.298Z,8.53
2016-10-10T07:50:32.825Z,8.61
2016-10-10T07:51:13.364Z,8.61
2016-10-10T07:51:53.914Z,8.59
2016-10-10T07:52:34.434Z,8.7
2016-10-10T07:53:14.959Z,8.73
2016-10-10T07:53:55.479Z,8.8
2016-10-10T07:54:36.025Z,8.79
2016-10-10T07:55:16.585Z,8.84
2016-10-10T07:55:57.103Z,8.84
2016-10-10T07:56:37.636Z,8.91
2016-10-10T07:57:18.200Z,8.92
2016-10-10T07:57:58.664Z,8.98
2016-10-10T07:58:39.188Z,9.04
2016-10-10T07:59:19.697Z,8.96
2016-10-10T08:00:00.220Z,9.11
2016-10-10T08:00:40.730Z,9.11
2016-10-10T08:01:21.232Z,9.02
2016-10-10T08:02:01.739Z,9.08
2016-10-10T08:02:42.311Z,9.08
2016-10-10T08:03:22.801Z,9.04
2016-10-10T08:04:03.324Z,8.98
2016-10-10T08:04:43.867Z,9.05
2016-10-10T08:05:24.371Z,9.02
2016-10-10T08:06:04.894Z,8.99
2016-10-10T08:06:45.423Z,9.02
2016-10-10T08:07:25.946Z,9.02
2016-10-10T08:08:06.457Z,8.96
2016-10-10T08:08:47.031Z,8.91
2016-10-10T08:09:27.579Z,8.91
2016-10-10T08:10:08.110Z,9.01
2016-10-10T08:10:48.636Z,8.99
2016-10-10T08:11:29.179Z,9.01
2016-10-10T08:12:09.708Z,8.96
2016-10-10T08:12:50.302Z,9.02
2016-10-10T08:13:30.803Z,9.01
2016-10-10T08:14:11.351Z,9.05
2016-10-10T08:14:51.902Z,8.99
2016-10-10T08:15:32.436Z,9.11
2016-10-10T08:16:12.963Z,9.04
2016-10-10T08:16:53.507Z,9.04
2016-10-10T08:17:34.041Z,8.98
2016-10-10T08:18:14.586Z,9.04
2016-10-10T08:18:55.132Z,9.08
2016-10-10T08:19:35.679Z,9.08
2016-10-10T08:20:16.224Z,9.15
2016-10-10T08:20:56.762Z,9.21
2016-10-10T08:21:37.301Z,9.23
2016-10-10T08:22:17.842Z,9.23
2016-10-10T08:22:58.385Z,9.24
2016-10-10T08:23:38.917Z,9.23
2016-10-10T08:24:19.452Z,9.26
2016-10-10T08:24:59.999Z,9.2
2016-10-10T08:25:40.536Z,9.23
2016-10-10T08:26:21.085Z,9.26
2016-10-10T08:27:01.630Z,9.32
2016-10-10T08:27:42.145Z,9.23
2016-10-10T08:28:22.675Z,9.32
2016-10-10T08:29:03.216Z,9.23
2016-10-10T08:29:43.733Z,9.36
2016-10-10T08:30:24.239Z,9.32
2016-10-10T08:31:04.788Z,9.29
2016-10-10T08:31:45.318Z,9.31
2016-10-10T08:32:25.840Z,9.35
2016-10-10T08:33:06.393Z,9.35
2016-10-10T08:33:46.939Z,9.24
2016-10-10T08:34:27.481Z,9.29
2016-10-10T08:35:08.025Z,9.24
2016-10-10T08:35:48.528Z,9.23
2016-10-10T08:36:29.035Z,9.21
2016-10-10T08:37:09.556Z,9.21
2016-10-10T08:37:50.061Z,9.26
2016-10-10T08:38:30.573Z,9.13
2016-10-10T08:39:11.119Z,9.01
2016-10-10T08:39:51.634Z,8.99
2016-10-10T08:42:10.979Z,9.11
2016-10-10T08:42:51.451Z,9.18
2016-10-10T08:43:31.997Z,9.04
2016-10-10T08:44:12.528Z,9.15
2016-10-10T08:44:53.040Z,9.2
2016-10-10T08:45:33.548Z,9.2
2016-10-10T08:46:14.095Z,9.17
2016-10-10T08:46:54.589Z,9.15
2016-10-10T08:47:35.123Z,9.18
2016-10-10T08:48:15.639Z,9.23
2016-10-10T08:48:56.145Z,9.2
2016-10-10T08:49:36.655Z,9.24
2016-10-10T08:50:17.176Z,9.23
2016-10-10T08:50:57.693Z,9.21
2016-10-10T08:51:38.201Z,9.23
2016-10-10T08:52:18.710Z,9.23
2016-10-10T08:52:59.262Z,9.26
2016-10-10T08:53:39.770Z,9.23
2016-10-10T08:54:20.274Z,9.31
2016-10-10T08:55:00.807Z,9.33
2016-10-10T08:55:41.355Z,9.35
2016-10-10T08:56:21.880Z,9.23
2016-10-10T08:57:02.406Z,9.31
2016-10-10T08:57:42.936Z,9.29
2016-10-10T08:58:23.455Z,9.31
2016-10-10T08:59:03.965Z,9.32
2016-10-10T08:59:44.487Z,9.31
2016-10-10T09:00:24.988Z,9.39
2016-10-10T09:01:05.552Z,9.33
2016-10-10T09:01:46.057Z,9.39
2016-10-10T09:02:26.575Z,9.46
2016-10-10T09:03:07.119Z,9.46
2016-10-10T09:03:47.644Z,9.42
2016-10-10T09:04:28.177Z,9.47
2016-10-10T09:05:08.698Z,9.42
2016-10-10T09:05:49.233Z,9.4
2016-10-10T09:06:29.777Z,9.46
2016-10-10T09:07:10.301Z,9.47
2016-10-10T09:07:50.842Z,9.48
2016-10-10T09:08:31.359Z,9.48
2016-10-10T09:09:11.893Z,9.38
2016-10-10T09:09:52.444Z,9.36
2016-10-10T09:10:32.953Z,9.39
2016-10-10T09:11:13.494Z,9.47
2016-10-10T09:11:54.030Z,9.46
2016-10-10T09:12:34.559Z,9.42
2016-10-10T09:13:15.100Z,9.46
2016-10-10T09:13:55.641Z,9.35
2016-10-10T09:14:36.157Z,9.32
2016-10-10T09:15:16.664Z,9.31
2016-10-10T09:15:57.198Z,9.32